Time;durP1;ratioP1;P1;durP2;ratioP2;P2;SDS_P1;SDS_P2;PMS_P1;PMS_P2;Temp;Humidity;BMP_temperature;BMP_pressure;BME280_temperature;BME280_humidity;BME280_pressure;Samples;Min_cycle;Max_cycle;Signal;HPM_P1;HPM_P2
2021/05/19 00:02:19;;;;;;;17.40;9.35;;;;;;;14.10;98.36;98749.67;1591394;90;21004;-50
2021/05/19 00:04:45;;;;;;;14.58;9.25;;;;;;;14.11;98.41;98755.98;1591567;90;21092;-50
2021/05/19 00:07:12;;;;;;;15.32;9.80;;;;;;;14.12;98.23;98763.12;1591266;90;21018;-50
2021/05/19 00:09:39;;;;;;;14.95;8.38;;;;;;;14.12;98.14;98758.41;1591462;90;21130;-51
2021/05/19 00:12:07;;;;;;;11.93;8.43;;;;;;;14.11;98.19;98765.64;1591605;90;21077;-51
2021/05/19 00:14:33;;;;;;;17.20;9.45;;;;;;;14.08;98.24;98767.13;1591474;90;21013;-51
2021/05/19 00:17:02;;;;;;;10.43;8.13;;;;;;;14.06;98.37;98769.98;1591451;90;21024;-51
2021/05/19 00:19:28;;;;;;;11.28;9.20;;;;;;;14.07;98.67;98762.73;1591442;90;21025;-51
2021/05/19 00:21:54;;;;;;;16.15;10.00;;;;;;;14.10;98.87;98759.88;1591585;90;20993;-51
2021/05/19 00:24:21;;;;;;;15.45;10.05;;;;;;;14.16;99.02;98760.73;1591481;90;21356;-50
2021/05/19 00:26:47;;;;;;;11.50;8.68;;;;;;;14.21;98.82;98754.77;1591350;90;21084;-50
2021/05/19 00:29:15;;;;;;;12.28;9.40;;;;;;;14.17;98.49;98759.59;1591528;90;21113;-50
2021/05/19 00:31:42;;;;;;;16.70;9.08;;;;;;;14.20;98.61;98750.38;1591326;89;21005;-50
2021/05/19 00:34:11;;;;;;;15.30;9.00;;;;;;;14.22;98.56;98749.45;1591501;90;21578;-50
2021/05/19 00:36:39;;;;;;;11.90;8.90;;;;;;;14.21;98.31;98747.87;1590935;90;21068;-50
2021/05/19 00:39:09;;;;;;;12.65;9.50;;;;;;;14.16;98.20;98749.69;1591436;90;21024;-50
2021/05/19 00:41:35;;;;;;;14.43;8.88;;;;;;;14.14;98.27;98755.30;1591605;90;21646;-51
2021/05/19 00:44:06;;;;;;;11.50;8.48;;;;;;;14.12;98.31;98759.78;1591471;90;21072;-50
2021/05/19 00:46:35;;;;;;;14.40;10.18;;;;;;;14.12;98.38;98765.89;1591121;90;21025;-51
2021/05/19 00:49:02;;;;;;;15.13;10.23;;;;;;;14.11;98.46;98758.74;1591490;90;21024;-50
2021/05/19 00:51:28;;;;;;;15.68;10.10;;;;;;;14.09;98.64;98757.70;1603447;89;22022;-50
2021/05/19 00:54:00;;;;;;;13.85;9.65;;;;;;;14.08;98.76;98742.86;1607013;88;21033;-50
2021/05/19 00:56:24;;;;;;;13.43;8.95;;;;;;;14.08;98.76;98744.24;1606033;89;21626;-51
2021/05/19 00:58:54;;;;;;;11.30;9.08;;;;;;;14.05;98.96;98740.20;1607135;89;20992;-50
2021/05/19 01:01:23;;;;;;;9.83;8.20;;;;;;;14.07;99.15;98739.27;1606828;89;21028;-50
2021/05/19 01:03:52;;;;;;;20.00;10.05;;;;;;;14.07;99.12;98746.76;1605454;89;20999;-50
2021/05/19 01:06:28;;;;;;;14.83;9.93;;;;;;;14.05;99.00;98739.41;1606317;89;21506;-49
2021/05/19 01:11:35;;;;;;;12.82;10.13;;;;;;;14.04;99.27;98750.99;1607182;89;21040;-50
2021/05/19 01:14:02;;;;;;;21.45;9.20;;;;;;;14.03;99.32;98749.38;1563361;89;21630;-49
2021/05/19 01:16:28;;;;;;;12.70;9.15;;;;;;;14.05;99.55;98750.44;1607059;89;21067;-50
2021/05/19 01:18:56;;;;;;;17.02;9.50;;;;;;;14.03;99.39;98752.72;1606945;88;21695;-50
2021/05/19 01:21:25;;;;;;;11.88;8.78;;;;;;;14.00;99.42;98758.33;1606990;89;21068;-49
2021/05/19 01:23:53;;;;;;;10.58;9.10;;;;;;;14.01;99.65;98761.34;1606940;88;21626;-50
2021/05/19 01:26:20;;;;;;;12.47;9.80;;;;;;;14.00;99.44;98765.23;1606879;89;21068;-49
2021/05/19 01:28:47;;;;;;;10.82;9.53;;;;;;;13.99;99.42;98764.44;1607011;89;21028;-50
2021/05/19 01:31:15;;;;;;;10.98;9.20;;;;;;;14.01;99.54;98761.34;1606838;88;21120;-49
2021/05/19 01:33:42;;;;;;;13.50;10.13;;;;;;;14.03;99.63;98763.76;1583573;89;21095;-49
2021/05/19 01:36:09;;;;;;;14.00;11.22;;;;;;;14.04;99.84;98757.89;1606911;89;21006;-49
2021/05/19 01:38:37;;;;;;;16.70;10.68;;;;;;;14.09;100.00;98757.70;1606970;89;21036;-49
2021/05/19 01:41:04;;;;;;;14.15;10.05;;;;;;;14.11;99.95;98751.84;1606856;89;21016;-49
2021/05/19 01:43:34;;;;;;;21.55;9.90;;;;;;;14.13;99.86;98761.96;1606915;89;21090;-50
2021/05/19 01:46:10;;;;;;;15.48;9.75;;;;;;;14.11;99.67;98760.92;1567312;89;21669;-50
2021/05/19 01:48:38;;;;;;;17.07;10.23;;;;;;;14.08;99.56;98758.84;1606952;89;21024;-49
2021/05/19 01:51:05;;;;;;;18.98;9.88;;;;;;;14.05;99.50;98755.38;1599678;89;21040;-49
2021/05/19 01:53:33;;;;;;;13.15;9.78;;;;;;;14.02;99.52;98757.44;1591542;90;21032;-49
2021/05/19 01:56:01;;;;;;;13.05;9.80;;;;;;;13.99;99.56;98760.88;1591573;90;21175;-49
2021/05/19 01:58:29;;;;;;;17.20;9.68;;;;;;;13.96;99.72;98762.36;1591426;90;21045;-49
2021/05/19 02:00:57;;;;;;;18.30;10.95;;;;;;;13.95;99.75;98764.07;1591704;90;21000;-49
2021/05/19 02:03:26;;;;;;;14.28;9.88;;;;;;;13.95;100.00;98768.21;1590894;90;20996;-50
2021/05/19 02:06:09;;;;;;;13.10;11.05;;;;;;;14.00;100.00;98761.92;1590811;90;20973;-49
2021/05/19 02:08:36;;;;;;;13.15;11.65;;;;;;;13.99;100.00;98760.30;1591682;90;21109;-49
2021/05/19 02:11:03;;;;;;;20.97;11.35;;;;;;;13.96;99.92;98765.11;1591614;90;21074;-49
2021/05/19 02:13:33;;;;;;;17.70;11.53;;;;;;;13.95;99.93;98762.11;1591574;90;21056;-49
2021/05/19 02:16:02;;;;;;;24.27;13.20;;;;;;;13.94;100.00;98766.00;1591514;90;21028;-49
2021/05/19 02:18:29;;;;;;;13.18;11.78;;;;;;;13.94;100.00;98767.97;1591501;90;21603;-50
2021/05/19 02:21:04;;;;;;;16.23;12.23;;;;;;;13.94;100.00;98772.91;1591679;90;21117;-50
2021/05/19 02:23:32;;;;;;;19.85;13.30;;;;;;;13.96;100.00;98770.64;1591643;90;20996;-51
2021/05/19 02:25:59;;;;;;;13.05;11.53;;;;;;;13.99;100.00;98778.82;1591663;90;21045;-50
2021/05/19 02:28:25;;;;;;;16.30;12.15;;;;;;;14.04;100.00;98783.33;1591425;90;21009;-50
2021/05/19 02:30:52;;;;;;;19.10;13.58;;;;;;;14.07;100.00;98787.58;1591679;90;21686;-49
2021/05/19 02:33:21;;;;;;;24.05;17.05;;;;;;;14.10;100.00;98784.17;1591358;90;21826;-49
2021/05/19 02:35:48;;;;;;;24.95;18.67;;;;;;;14.13;100.00;98786.25;1591675;90;21028;-49
2021/05/19 02:38:15;;;;;;;33.13;21.02;;;;;;;14.16;100.00;98791.09;1571660;90;20996;-49
2021/05/19 02:40:42;;;;;;;22.27;18.65;;;;;;;14.22;100.00;98797.22;1591588;90;21012;-50
2021/05/19 02:43:09;;;;;;;28.05;19.65;;;;;;;14.28;100.00;98793.10;1591336;90;21012;-49
2021/05/19 02:45:37;;;;;;;23.15;20.10;;;;;;;14.33;100.00;98787.94;1591723;90;21098;-49
2021/05/19 02:48:05;;;;;;;33.23;21.10;;;;;;;14.38;100.00;98785.56;1591431;90;21690;-50
2021/05/19 02:50:31;;;;;;;37.00;19.25;;;;;;;14.39;100.00;98783.84;1592545;88;21032;-49
2021/05/19 02:52:58;;;;;;;23.18;20.68;;;;;;;14.44;100.00;98782.81;1606166;89;21037;-50
2021/05/19 02:55:24;;;;;;;27.22;19.80;;;;;;;14.45;100.00;98785.23;1605946;89;21050;-50
2021/05/19 02:57:50;;;;;;;24.45;20.25;;;;;;;14.47;100.00;98792.59;1606257;89;21087;-50
2021/05/19 03:00:17;;;;;;;30.05;20.72;;;;;;;14.51;100.00;98794.13;1606090;89;21070;-49
2021/05/19 03:02:44;;;;;;;23.75;20.37;;;;;;;14.55;100.00;98795.61;1605962;88;21585;-50
2021/05/19 03:05:12;;;;;;;23.85;19.48;;;;;;;14.55;99.99;98795.61;1605896;89;21042;-50
2021/05/19 03:07:38;;;;;;;23.85;21.35;;;;;;;14.55;99.82;98792.85;1605963;88;20993;-50
2021/05/19 03:10:08;;;;;;;27.70;21.40;;;;;;;14.55;99.78;98796.44;1605841;89;21106;-49
2021/05/19 03:12:34;;;;;;;33.28;21.37;;;;;;;14.58;99.69;98800.48;1606034;88;21046;-49
2021/05/19 03:15:02;;;;;;;29.35;21.10;;;;;;;14.59;99.52;98785.50;1605932;89;21727;-50
2021/05/19 03:17:28;;;;;;;27.60;20.35;;;;;;;14.61;99.54;98791.52;1605973;89;21010;-50
2021/05/19 03:19:56;;;;;;;24.43;21.37;;;;;;;14.62;99.33;98794.55;1605985;89;20954;-50
2021/05/19 03:22:24;;;;;;;29.07;21.80;;;;;;;14.61;99.15;98799.80;1605927;89;21125;-50
2021/05/19 03:24:50;;;;;;;28.32;20.20;;;;;;;14.62;99.16;98795.93;1605843;89;21066;-50
2021/05/19 03:27:17;;;;;;;24.37;21.68;;;;;;;14.64;99.17;98794.42;1605989;89;21006;-50
2021/05/19 03:29:44;;;;;;;27.85;21.77;;;;;;;14.65;99.17;98800.77;1606032;89;21662;-50
2021/05/19 03:32:11;;;;;;;31.37;24.18;;;;;;;14.67;99.14;98802.05;1605829;89;21038;-50
2021/05/19 03:34:37;;;;;;;28.73;23.70;;;;;;;14.68;99.17;98801.47;1606107;89;21576;-50
2021/05/19 03:37:04;;;;;;;31.15;26.20;;;;;;;14.71;99.15;98808.27;1605854;89;21014;-49
2021/05/19 03:39:30;;;;;;;34.18;25.57;;;;;;;14.69;98.90;98807.23;1606004;89;21090;-50
2021/05/19 03:41:57;;;;;;;39.25;25.48;;;;;;;14.68;98.94;98809.76;1606090;89;21041;-50
2021/05/19 03:44:23;;;;;;;30.15;24.25;;;;;;;14.70;98.89;98807.45;1605997;89;21631;-50
2021/05/19 03:46:50;;;;;;;33.10;24.32;;;;;;;14.73;98.96;98813.67;1606134;89;21085;-50
2021/05/19 03:49:18;;;;;;;30.02;25.10;;;;;;;14.76;98.98;98826.00;1605667;89;20966;-50
2021/05/19 03:51:45;;;;;;;32.73;24.10;;;;;;;14.79;98.85;98826.14;1606235;89;21023;-49
2021/05/19 03:54:11;;;;;;;31.35;24.07;;;;;;;14.78;98.47;98818.20;1606413;89;21031;-50
2021/05/19 03:56:39;;;;;;;31.55;25.00;;;;;;;14.77;98.40;98820.72;1604455;89;21491;-50
2021/05/19 03:59:08;;;;;;;42.33;26.20;;;;;;;14.76;98.20;98818.54;1604484;89;21027;-49
2021/05/19 04:01:36;;;;;;;39.70;28.30;;;;;;;14.76;98.13;98819.09;1604445;89;22059;-50
2021/05/19 04:04:05;;;;;;;32.42;28.23;;;;;;;14.76;98.17;98811.63;1605415;89;21036;-50
2021/05/19 04:06:32;;;;;;;32.05;25.70;;;;;;;14.78;98.32;98820.37;1606415;89;21012;-49
2021/05/19 04:08:58;;;;;;;35.23;28.85;;;;;;;14.78;98.37;98818.99;1606731;88;21059;-50
2021/05/19 04:11:25;;;;;;;44.67;26.17;;;;;;;14.80;98.40;98825.00;1606672;89;21112;-50
2021/05/19 04:13:52;;;;;;;31.12;26.02;;;;;;;14.80;98.25;98822.24;1606445;88;21035;-50
2021/05/19 04:16:18;;;;;;;36.68;25.85;;;;;;;14.79;98.24;98821.17;1606790;88;21321;-50
2021/05/19 04:18:44;;;;;;;37.45;26.70;;;;;;;14.77;98.24;98817.37;1606617;89;20987;-50
2021/05/19 04:21:11;;;;;;;41.65;27.17;;;;;;;14.77;98.30;98814.61;1606766;89;21057;-50
2021/05/19 04:23:37;;;;;;;40.25;28.17;;;;;;;14.78;98.19;98810.70;1606930;88;21646;-51
2021/05/19 04:26:03;;;;;;;34.53;28.83;;;;;;;14.78;98.11;98820.37;1606671;89;21023;-50
2021/05/19 04:28:30;;;;;;;36.33;28.00;;;;;;;14.79;98.08;98817.85;1606923;88;21004;-50
2021/05/19 04:30:56;;;;;;;41.20;30.08;;;;;;;14.80;97.99;98816.71;1606916;89;21120;-50
2021/05/19 04:33:24;;;;;;;36.17;30.10;;;;;;;14.86;98.00;98811.19;1606968;89;21047;-50
2021/05/19 04:35:51;;;;;;;37.63;30.82;;;;;;;14.90;97.52;98811.30;1606921;89;21115;-50
2021/05/19 04:38:18;;;;;;;35.70;29.10;;;;;;;14.91;97.24;98808.78;1606826;89;21075;-50
2021/05/19 04:40:46;;;;;;;34.43;28.65;;;;;;;14.97;97.32;98805.22;1607003;89;21036;-50
2021/05/19 04:43:13;;;;;;;32.85;28.67;;;;;;;15.02;97.00;98805.81;1606846;89;21019;-50
2021/05/19 04:45:40;;;;;;;34.50;29.63;;;;;;;15.09;96.93;98805.25;1607083;88;21119;-50
2021/05/19 04:48:08;;;;;;;37.03;27.77;;;;;;;15.16;96.91;98798.58;1606770;89;21150;-50
2021/05/19 04:50:34;;;;;;;31.77;28.25;;;;;;;15.26;96.73;98806.18;1606741;89;21064;-50
2021/05/19 04:53:01;;;;;;;33.80;28.20;;;;;;;15.35;96.59;98798.59;1606969;88;20988;-50
2021/05/19 04:55:27;;;;;;;31.35;28.05;;;;;;;15.43;96.36;98803.19;1606839;88;21039;-50
2021/05/19 04:57:54;;;;;;;35.43;30.00;;;;;;;15.48;96.14;98801.59;1606911;89;21000;-51
2021/05/19 05:00:21;;;;;;;37.28;29.48;;;;;;;15.54;96.08;98809.88;1606862;89;21180;-50
2021/05/19 05:02:47;;;;;;;39.40;31.87;;;;;;;15.63;95.84;98806.19;1606982;89;21579;-50
2021/05/19 05:05:14;;;;;;;34.20;29.82;;;;;;;15.72;95.89;98808.27;1607012;88;20968;-50
2021/05/19 05:07:41;;;;;;;34.63;30.15;;;;;;;15.80;95.67;98807.35;1606891;89;21039;-50
2021/05/19 05:10:10;;;;;;;32.67;27.75;;;;;;;15.87;95.41;98810.92;1606986;89;20991;-50
2021/05/19 05:12:37;;;;;;;36.73;29.82;;;;;;;15.92;95.27;98814.85;1607016;88;21096;-50
2021/05/19 05:15:05;;;;;;;33.00;23.83;;;;;;;15.96;95.03;98813.00;1606919;88;21618;-51
2021/05/19 05:17:33;;;;;;;29.95;24.47;;;;;;;16.00;94.18;98806.17;1606948;89;21040;-50
2021/05/19 05:20:00;;;;;;;30.88;25.95;;;;;;;16.00;93.62;98806.97;1606657;89;21449;-51
2021/05/19 05:22:28;;;;;;;29.87;26.68;;;;;;;16.02;93.46;98809.42;1605271;89;21067;-50
2021/05/19 05:24:54;;;;;;;27.13;21.27;;;;;;;16.06;93.05;98811.13;1606374;89;21771;-50
2021/05/19 05:27:21;;;;;;;27.48;24.50;;;;;;;16.09;92.47;98819.88;1606702;89;21124;-51
2021/05/19 05:29:48;;;;;;;26.70;23.40;;;;;;;16.10;92.01;98809.84;1625547;87;21010;-51
2021/05/19 05:32:14;;;;;;;28.77;24.95;;;;;;;16.14;91.75;98812.14;1633438;87;21055;-51
2021/05/19 05:34:41;;;;;;;30.30;25.97;;;;;;;16.20;90.90;98823.22;1652328;86;20957;-50
2021/05/19 05:37:07;;;;;;;35.40;26.57;;;;;;;16.27;90.76;98814.30;1634314;87;21106;-50
2021/05/19 05:39:34;;;;;;;32.38;28.20;;;;;;;16.30;90.74;98821.11;1652252;86;21020;-50
2021/05/19 05:42:00;;;;;;;32.48;27.90;;;;;;;16.26;90.08;98814.06;1635455;87;21043;-50
2021/05/19 05:44:27;;;;;;;30.32;27.20;;;;;;;16.24;90.02;98810.84;1652109;86;21583;-50
2021/05/19 05:46:54;;;;;;;30.37;26.50;;;;;;;16.23;89.45;98811.44;1635377;87;20990;-51
2021/05/19 05:49:20;;;;;;;32.83;27.00;;;;;;;16.22;88.55;98824.25;1652320;86;21704;-50
2021/05/19 05:51:46;;;;;;;34.27;28.92;;;;;;;16.20;88.23;98821.02;1635378;87;21062;-50
2021/05/19 05:54:13;;;;;;;36.68;28.23;;;;;;;16.20;88.21;98815.47;1652039;86;21638;-50
2021/05/19 05:56:41;;;;;;;31.30;27.50;;;;;;;16.24;88.01;98823.31;1635085;87;21026;-50
2021/05/19 05:59:09;;;;;;;33.55;30.00;;;;;;;16.28;87.42;98828.38;1651567;86;21629;-50
2021/05/19 06:01:35;;;;;;;32.38;29.10;;;;;;;16.34;87.36;98835.87;1635264;87;21088;-53
2021/05/19 06:04:04;;;;;;;30.60;27.40;;;;;;;16.39;86.72;98842.53;1652156;86;21036;-50
2021/05/19 06:06:31;;;;;;;33.48;28.15;;;;;;;16.43;86.24;98835.72;1635436;87;21671;-51
2021/05/19 06:09:00;;;;;;;33.60;28.25;;;;;;;16.45;85.31;98838.94;1651545;86;20992;-50
2021/05/19 06:11:27;;;;;;;35.03;28.10;;;;;;;16.45;84.81;98840.32;1635318;87;21059;-51
2021/05/19 06:13:54;;;;;;;35.63;30.82;;;;;;;16.44;84.46;98842.30;1652186;86;21113;-50
2021/05/19 06:16:20;;;;;;;30.40;27.13;;;;;;;16.47;84.25;98840.20;1635148;87;21131;-51
2021/05/19 06:18:47;;;;;;;40.95;26.70;;;;;;;16.54;84.76;98836.84;1652372;86;21025;-51
2021/05/19 06:21:14;;;;;;;28.77;23.10;;;;;;;16.62;84.82;98837.84;1634811;87;21596;-50
2021/05/19 06:23:40;;;;;;;31.40;24.77;;;;;;;16.71;84.50;98839.89;1652348;86;20992;-50
2021/05/19 06:26:07;;;;;;;28.15;23.00;;;;;;;16.81;83.87;98842.74;1635377;87;21712;-51
2021/05/19 06:28:33;;;;;;;28.95;24.47;;;;;;;16.89;83.37;98837.06;1652360;85;20980;-51
2021/05/19 06:31:00;;;;;;;30.23;24.00;;;;;;;16.98;82.41;98844.42;1635309;87;21649;-50
2021/05/19 06:33:26;;;;;;;25.48;22.40;;;;;;;17.02;80.60;98848.89;1652361;86;21591;-51
2021/05/19 06:35:57;;;;;;;32.53;21.10;;;;;;;17.06;80.36;98847.59;1634698;87;21099;-51
2021/05/19 06:38:21;;;;;;;28.75;20.72;;;;;;;17.14;79.92;98857.72;1650852;86;21232;-50
2021/05/19 06:40:49;;;;;;;24.18;21.55;;;;;;;17.20;79.02;98859.06;1652218;86;21005;-50
2021/05/19 06:43:16;;;;;;;33.18;23.00;;;;;;;17.26;78.34;98859.60;1651991;86;21131;-50
2021/05/19 06:45:43;;;;;;;29.15;18.87;;;;;;;17.34;78.34;98859.22;1652149;86;20981;-50
2021/05/19 06:48:10;;;;;;;24.45;18.73;;;;;;;17.39;77.08;98862.55;1651935;86;21024;-51
2021/05/19 06:50:37;;;;;;;40.67;22.52;;;;;;;17.44;77.12;98869.19;1652120;86;21311;-51
2021/05/19 06:53:03;;;;;;;26.75;18.30;;;;;;;17.44;77.13;98861.46;1649838;86;21067;-51
2021/05/19 06:55:30;;;;;;;27.07;20.00;;;;;;;17.46;76.77;98866.06;1620365;88;21600;-51
2021/05/19 06:57:56;;;;;;;25.68;20.75;;;;;;;17.52;76.81;98865.21;1624393;87;21050;-51
2021/05/19 07:00:23;;;;;;;25.02;19.30;;;;;;;17.57;76.31;98873.28;1596177;88;21060;-50
2021/05/19 07:02:51;;;;;;;30.40;23.18;;;;;;;17.56;75.83;98878.04;1607994;87;21035;-51
2021/05/19 07:05:17;;;;;;;34.78;27.22;;;;;;;17.53;75.69;98884.28;1593618;89;21061;-50
2021/05/19 07:07:46;;;;;;;43.00;23.98;;;;;;;17.55;75.95;98884.74;1623798;87;21029;-50
2021/05/19 07:10:14;;;;;;;42.40;22.05;;;;;;;17.55;76.58;98881.97;1623833;88;21092;-50
2021/05/19 07:12:43;;;;;;;29.95;21.05;;;;;;;17.53;76.56;98894.00;1621030;88;21036;-52
2021/05/19 07:15:12;;;;;;;26.52;20.77;;;;;;;17.48;75.74;98894.28;1620732;87;21048;-52
2021/05/19 07:17:39;;;;;;;27.48;18.20;;;;;;;17.45;75.66;98896.39;1621748;88;20977;-51
2021/05/19 07:20:11;;;;;;;29.37;20.95;;;;;;;17.41;75.17;98892.12;1622060;88;21005;-51
2021/05/19 07:22:39;;;;;;;24.65;20.45;;;;;;;17.42;75.45;98892.94;1617783;88;20965;-51
2021/05/19 07:25:06;;;;;;;40.30;23.30;;;;;;;17.49;75.90;98891.73;1621636;88;21005;-51
2021/05/19 07:27:33;;;;;;;46.25;32.25;;;;;;;17.56;76.12;98891.91;1621949;86;21116;-51
2021/05/19 07:30:03;;;;;;;32.03;23.32;;;;;;;17.61;76.07;98888.06;1619606;87;21093;-51
2021/05/19 07:32:30;;;;;;;22.65;17.27;;;;;;;17.66;75.97;98884.20;1618812;88;21057;-52
2021/05/19 07:34:57;;;;;;;26.17;18.15;;;;;;;17.71;74.54;98885.33;1618803;88;21064;-53
2021/05/19 07:37:27;;;;;;;35.35;18.20;;;;;;;17.76;73.58;98889.20;1622053;87;21923;-53
2021/05/19 07:39:53;;;;;;;27.42;17.55;;;;;;;17.78;72.83;98884.91;1619093;88;21040;-50
2021/05/19 07:42:20;;;;;;;24.92;17.07;;;;;;;17.81;72.65;98886.17;1623074;87;20958;-51
2021/05/19 07:44:47;;;;;;;25.82;16.35;;;;;;;17.84;73.16;98884.05;1623318;86;21013;-52
2021/05/19 07:47:14;;;;;;;23.25;14.95;;;;;;;17.91;72.46;98893.18;1622656;87;20971;-51
2021/05/19 07:49:40;;;;;;;26.48;14.60;;;;;;;17.98;72.32;98898.91;1595780;88;21041;-52
2021/05/19 07:52:07;;;;;;;24.00;20.05;;;;;;;18.05;71.85;98903.83;1595449;88;21025;-52
2021/05/19 07:54:35;;;;;;;25.25;13.85;;;;;;;18.12;72.32;98899.83;1594381;88;21015;-52
2021/05/19 07:57:12;;;;;;;23.55;13.53;;;;;;;18.20;71.61;98907.14;1622475;86;20965;-52
2021/05/19 07:59:33;;;;;;;23.15;12.53;;;;;;;18.24;71.41;98912.80;1622460;87;21646;-52
2021/05/19 08:02:02;;;;;;;27.52;12.65;;;;;;;18.27;72.10;98906.51;1625776;86;20998;-52
2021/05/19 08:04:33;;;;;;;13.53;10.40;;;;;;;18.27;71.77;98907.30;1622358;88;21026;-51
2021/05/19 08:07:01;;;;;;;21.52;12.65;;;;;;;18.33;70.98;98912.00;1622651;88;20961;-51
2021/05/19 08:09:27;;;;;;;13.30;10.48;;;;;;;18.35;70.15;98911.63;1622303;88;21557;-52
2021/05/19 08:11:54;;;;;;;12.95;9.38;;;;;;;18.34;70.32;98910.84;1624634;86;21434;-52
2021/05/19 08:14:21;;;;;;;20.05;10.68;;;;;;;18.36;69.92;98917.42;1596262;88;21077;-52
2021/05/19 08:16:49;;;;;;;15.98;7.62;;;;;;;18.38;69.73;98914.51;1623068;87;21018;-52
2021/05/19 08:19:17;;;;;;;18.67;9.73;;;;;;;18.40;68.17;98906.59;1622975;86;21053;-51
2021/05/19 08:21:44;;;;;;;16.02;10.30;;;;;;;18.39;68.56;98906.96;1602837;87;21063;-53
2021/05/19 08:24:12;;;;;;;24.23;10.50;;;;;;;18.42;68.97;98912.62;1591949;89;22027;-53
2021/05/19 08:26:38;;;;;;;22.70;8.43;;;;;;;18.47;68.33;98915.09;1596469;89;21005;-52
2021/05/19 08:29:06;;;;;;;21.65;7.03;;;;;;;18.52;67.89;98907.08;1595722;87;21054;-53
2021/05/19 08:31:34;;;;;;;19.50;6.42;;;;;;;18.61;67.67;98913.22;1630035;87;21676;-49
2021/05/19 08:34:00;;;;;;;13.32;6.42;;;;;;;18.65;67.30;98912.71;1597863;88;21072;-51
2021/05/19 08:36:28;;;;;;;20.20;5.87;;;;;;;18.64;66.87;98918.64;1628486;86;20967;-52
2021/05/19 08:38:54;;;;;;;17.60;6.10;;;;;;;18.60;66.79;98915.77;1630977;86;20968;-52
2021/05/19 08:41:21;;;;;;;23.00;8.48;;;;;;;18.59;67.45;98923.91;1595833;89;22103;-51
2021/05/19 08:43:48;;;;;;;13.58;5.10;;;;;;;18.58;66.39;98915.94;1625065;87;21062;-53
2021/05/19 08:46:18;;;;;;;14.55;4.17;;;;;;;18.57;66.31;98920.67;1630625;87;20984;-51
2021/05/19 08:48:52;;;;;;;9.68;3.65;;;;;;;18.58;66.33;98927.85;1628162;86;21055;-52
2021/05/19 08:51:14;;;;;;;21.85;4.17;;;;;;;18.59;66.37;98925.30;1627265;87;20987;-53
2021/05/19 08:53:41;;;;;;;8.15;3.42;;;;;;;18.63;66.71;98922.02;1587184;89;21105;-51
2021/05/19 08:56:13;;;;;;;9.85;3.87;;;;;;;18.64;65.84;98924.20;1598477;89;21107;-51
2021/05/19 08:58:40;;;;;;;19.00;3.87;;;;;;;18.61;65.50;98927.72;1603508;89;21923;-51
2021/05/19 09:01:06;;;;;;;7.62;3.30;;;;;;;18.56;65.38;98926.59;1601995;88;21018;-52
2021/05/19 09:03:34;;;;;;;6.92;3.40;;;;;;;18.53;65.35;98927.33;1601399;89;20945;-51
2021/05/19 09:06:10;;;;;;;13.40;3.10;;;;;;;18.51;65.87;98926.30;1601884;87;21667;-52
2021/05/19 09:08:38;;;;;;;12.37;3.27;;;;;;;18.54;65.57;98926.17;1580312;89;21008;-52
2021/05/19 09:11:05;;;;;;;7.35;2.42;;;;;;;18.57;65.30;98929.01;1599101;89;21027;-52
2021/05/19 09:13:42;;;;;;;11.50;3.10;;;;;;;18.60;65.63;98935.23;1608469;87;20988;-51
2021/05/19 09:16:10;;;;;;;15.93;3.95;;;;;;;18.71;65.54;98933.29;1603208;87;21049;-52
2021/05/19 09:18:52;;;;;;;8.48;2.62;;;;;;;18.78;65.11;98929.27;1589679;89;21185;-52
2021/05/19 09:21:40;;;;;;;15.53;3.58;;;;;;;18.86;65.25;98929.61;1597351;89;21625;-52
2021/05/19 09:24:20;;;;;;;10.95;3.22;;;;;;;18.97;64.92;98937.62;1601389;88;21047;-55
2021/05/19 09:26:54;;;;;;;10.43;6.03;;;;;;;19.05;64.36;98936.38;1623381;88;20960;-53
2021/05/19 09:29:34;;;;;;;7.30;3.52;;;;;;;19.08;62.89;98928.71;1623527;88;20975;-53
2021/05/19 09:32:07;;;;;;;11.88;3.30;;;;;;;19.12;62.14;98928.17;1624762;87;21078;-55
2021/05/19 09:34:38;;;;;;;7.35;2.20;;;;;;;19.22;62.25;98928.98;1594011;89;21640;-51
2021/05/19 09:37:14;;;;;;;12.93;3.25;;;;;;;19.28;60.92;98928.89;1622962;88;20962;-53
2021/05/19 09:39:58;;;;;;;8.35;2.90;;;;;;;19.30;60.83;98933.49;1600850;89;21103;-52
2021/05/19 09:42:29;;;;;;;15.95;3.98;;;;;;;19.38;60.24;98926.09;1599512;89;21602;-53
2021/05/19 09:44:57;;;;;;;15.78;2.95;;;;;;;19.49;60.09;98926.28;1600419;87;21865;-52
2021/05/19 09:47:39;;;;;;;8.55;2.00;;;;;;;19.64;58.91;98932.33;1579730;89;21125;-53
2021/05/19 09:50:07;;;;;;;6.25;2.50;;;;;;;19.74;58.90;98923.16;1607542;87;20961;-52
2021/05/19 09:52:33;;;;;;;4.80;1.92;;;;;;;19.85;58.54;98923.56;1604660;89;21040;-53
2021/05/19 09:55:10;;;;;;;5.92;2.08;;;;;;;20.06;58.33;98932.64;1598902;88;21059;-52
2021/05/19 09:57:43;;;;;;;4.08;1.87;;;;;;;20.18;57.33;98921.30;1598588;88;21140;-52
2021/05/19 10:00:11;;;;;;;6.78;2.05;;;;;;;20.36;57.75;98925.73;1598824;89;20992;-52
2021/05/19 10:02:44;;;;;;;11.30;3.42;;;;;;;20.67;56.81;98929.38;1594971;89;21121;-53
2021/05/19 10:05:27;;;;;;;8.45;2.20;;;;;;;20.92;55.51;98936.69;1594570;89;21072;-52
2021/05/19 10:07:46;;;;;;;5.15;2.95;;;;;;;21.10;54.38;98931.91;1595076;88;21035;-54
2021/05/19 10:10:14;;;;;;;4.97;1.98;;;;;;;21.14;53.92;98926.57;1595672;88;21079;-52
2021/05/19 10:12:42;;;;;;;5.35;1.85;;;;;;;21.23;53.13;98930.45;1594100;89;21020;-54
2021/05/19 10:15:13;;;;;;;10.75;2.20;;;;;;;21.20;53.16;98934.02;1598984;89;20985;-52
2021/05/19 10:17:48;;;;;;;8.20;2.40;;;;;;;21.14;53.79;98932.16;1592543;89;21101;-52
2021/05/19 10:20:24;;;;;;;1.95;1.60;;;;;;;21.08;53.14;98939.84;1595044;88;21008;-52
2021/05/19 10:22:50;;;;;;;4.00;1.10;;;;;;;21.00;53.03;98936.97;1597257;89;21448;-53
2021/05/19 10:25:36;;;;;;;2.37;1.30;;;;;;;20.96;52.41;98937.52;1598980;89;21535;-53
2021/05/19 10:28:08;;;;;;;7.35;1.57;;;;;;;20.89;51.45;98931.27;1598902;89;21016;-53
2021/05/19 10:30:49;;;;;;;5.22;1.12;;;;;;;20.80;51.62;98934.92;1598067;89;21090;-55
2021/05/19 10:33:42;;;;;;;6.12;1.77;;;;;;;20.78;51.48;98937.91;1597665;89;20992;-52
2021/05/19 10:36:29;;;;;;;2.27;1.40;;;;;;;20.76;51.66;98938.26;1598716;88;21224;-53
2021/05/19 10:39:13;;;;;;;11.43;1.80;;;;;;;20.76;51.07;98943.84;1578385;89;21069;-53
2021/05/19 10:41:49;;;;;;;8.08;1.80;;;;;;;20.68;51.89;98941.55;1598604;88;20975;-53
2021/05/19 10:44:17;;;;;;;18.45;4.33;;;;;;;20.70;51.37;98943.36;1595965;89;20996;-55
2021/05/19 10:52:46;;;;;;;31.02;3.17;;;;;;;20.98;50.88;98942.14;1595421;88;21500;-54
2021/05/19 10:57:58;;;;;;;7.67;1.55;;;;;;;20.86;51.85;98947.95;1587775;90;21021;-54
2021/05/19 11:00:29;;;;;;;4.37;2.20;;;;;;;20.82;50.99;98953.50;1583509;90;21028;-54
2021/05/19 11:03:01;;;;;;;11.15;2.37;;;;;;;20.79;50.98;98940.89;1589416;89;21046;-54
2021/05/19 11:05:34;;;;;;;6.03;2.30;;;;;;;20.73;52.54;98950.18;1588203;90;21149;-52
2021/05/19 11:08:11;;;;;;;10.00;2.40;;;;;;;20.66;53.46;98956.45;1587711;90;21036;-53
2021/05/19 11:10:41;;;;;;;11.48;4.72;;;;;;;20.54;54.92;98951.09;1586962;90;21129;-54
2021/05/19 11:13:09;;;;;;;27.48;8.15;;;;;;;20.40;55.24;98955.07;1589158;90;21013;-53
2021/05/19 11:16:11;;;;;;;24.92;6.67;;;;;;;20.23;55.71;98950.23;1590964;89;21055;-53
2021/05/19 11:21:05;;;;;;;9.93;2.72;;;;;;;20.01;56.51;98957.45;1585124;89;20961;-53
2021/05/19 11:23:31;;;;;;;21.85;3.80;;;;;;;19.91;56.25;98956.10;1591916;89;20993;-53
2021/05/19 11:26:14;;;;;;;17.55;4.08;;;;;;;19.87;55.90;98953.84;1588877;90;20961;-53
2021/05/19 11:28:43;;;;;;;16.07;3.55;;;;;;;19.79;56.70;98959.89;1589394;88;21103;-53
2021/05/19 11:31:15;;;;;;;11.00;3.98;;;;;;;19.71;58.14;98971.25;1589044;89;21133;-53
2021/05/19 11:33:59;;;;;;;5.03;3.45;;;;;;;19.62;59.96;98968.11;1587336;90;21003;-55
2021/05/19 11:36:43;;;;;;;7.75;3.42;;;;;;;19.41;61.24;98971.29;1582567;89;21537;-54
2021/05/19 11:39:38;;;;;;;18.32;4.83;;;;;;;19.22;62.79;98974.91;1581816;90;21004;-53
2021/05/19 11:42:23;;;;;;;12.70;5.80;;;;;;;19.08;63.97;98971.84;1585219;89;21594;-53
2021/05/19 11:44:59;;;;;;;8.98;4.12;;;;;;;18.93;65.59;98979.89;1583322;89;21081;-53